createdAt,value
2023-02-01T00:01:57.274Z,19.53
2023-02-01T00:04:23.777Z,25.03
2023-02-01T00:06:50.251Z,24.23
2023-02-01T00:09:16.788Z,16.23
2023-02-01T00:11:43.248Z,21.50
2023-02-01T00:14:09.817Z,23.97
2023-02-01T00:16:36.734Z,26.47
2023-02-01T00:19:14.173Z,24.73
2023-02-01T00:21:41.094Z,31.60
2023-02-01T00:24:10.198Z,23.70
2023-02-01T00:26:44.462Z,31.50
2023-02-01T00:29:18.346Z,36.13
2023-02-01T00:31:45.476Z,50.00
2023-02-01T00:34:17.004Z,44.13
2023-02-01T00:36:44.826Z,38.70
2023-02-01T00:39:12.831Z,29.37
2023-02-01T00:41:40.542Z,29.23
2023-02-01T00:44:07.341Z,22.37
2023-02-01T00:46:33.822Z,32.23
2023-02-01T00:49:00.300Z,21.20
2023-02-01T00:51:30.443Z,18.57
2023-02-01T00:53:57.254Z,25.40
2023-02-01T00:56:24.001Z,14.27
2023-02-01T00:58:50.485Z,23.27
2023-02-01T01:01:27.859Z,25.87
2023-02-01T01:03:58.236Z,30.77
2023-02-01T01:06:31.308Z,20.97
2023-02-01T01:09:00.225Z,25.90
2023-02-01T01:11:31.356Z,18.03
2023-02-01T01:13:59.649Z,18.30
2023-02-01T01:16:29.314Z,27.13
2023-02-01T01:19:00.620Z,23.00
2023-02-01T01:21:28.020Z,24.33
2023-02-01T01:23:54.927Z,14.13
2023-02-01T01:26:26.306Z,23.67
2023-02-01T01:28:55.456Z,24.47
2023-02-01T01:31:22.400Z,18.43
2023-02-01T01:33:55.470Z,17.37
2023-02-01T01:36:22.385Z,23.13
2023-02-01T01:38:49.463Z,26.17
2023-02-01T01:41:21.462Z,20.00
2023-02-01T01:44:56.189Z,20.27
2023-02-01T01:47:23.715Z,18.07
2023-02-01T01:49:51.302Z,18.43
2023-02-01T01:52:19.985Z,30.40
2023-02-01T01:54:52.002Z,23.17
2023-02-01T01:57:33.277Z,18.53
2023-02-01T02:00:21.831Z,19.27
2023-02-01T02:02:59.608Z,21.83
2023-02-01T02:05:28.125Z,19.23
2023-02-01T02:08:01.115Z,17.30
2023-02-01T02:10:47.293Z,17.87
2023-02-01T02:13:17.401Z,16.43
2023-02-01T02:16:04.681Z,14.43
2023-02-01T02:21:08.780Z,13.63
2023-02-01T02:24:22.612Z,15.80
2023-02-01T02:32:38.237Z,15.53
2023-02-01T02:35:28.179Z,20.50
2023-02-01T02:38:41.994Z,14.53
2023-02-01T02:41:45.902Z,15.43
2023-02-01T02:45:02.771Z,14.73
2023-02-01T02:48:25.559Z,15.93
2023-02-01T02:52:51.039Z,16.90
2023-02-01T02:55:18.554Z,12.53
2023-02-01T02:58:04.334Z,16.13
2023-02-01T03:00:52.730Z,14.40
2023-02-01T03:03:37.228Z,14.33
2023-02-01T03:06:04.263Z,15.80
2023-02-01T03:08:31.731Z,18.87
2023-02-01T03:11:07.318Z,13.70
2023-02-01T03:13:57.715Z,15.13
2023-02-01T03:16:54.729Z,14.93
2023-02-01T03:19:43.842Z,14.03
2023-02-01T03:22:17.164Z,14.03
2023-02-01T03:24:54.413Z,14.07
2023-02-01T03:27:51.355Z,15.97
2023-02-01T03:30:38.437Z,15.57
2023-02-01T03:33:21.164Z,14.27
2023-02-01T03:39:01.978Z,13.97
2023-02-01T03:41:51.619Z,15.73
2023-02-01T03:44:26.656Z,11.80
2023-02-01T03:47:21.232Z,13.07
2023-02-01T03:49:54.466Z,10.83
2023-02-01T03:52:31.775Z,11.63
2023-02-01T03:54:59.596Z,10.67
2023-02-01T03:57:37.672Z,19.20
2023-02-01T04:00:27.204Z,15.03
2023-02-01T04:02:54.646Z,12.10
2023-02-01T04:05:22.284Z,20.70
2023-02-01T04:07:48.891Z,16.40
2023-02-01T04:10:19.542Z,14.50
2023-02-01T04:12:46.231Z,14.57
2023-02-01T04:15:12.824Z,22.07
2023-02-01T04:17:39.292Z,17.63
2023-02-01T04:20:06.756Z,17.83
2023-02-01T04:22:33.400Z,26.33
2023-02-01T04:24:59.874Z,17.03
2023-02-01T04:27:26.337Z,18.83
2023-02-01T04:29:52.841Z,19.80
2023-02-01T04:32:22.853Z,15.47
2023-02-01T04:34:49.308Z,15.07
2023-02-01T04:37:15.773Z,19.83
2023-02-01T04:39:42.267Z,13.53
2023-02-01T04:42:08.868Z,23.93
2023-02-01T04:44:37.131Z,16.90
2023-02-01T04:47:03.732Z,11.83
2023-02-01T04:49:30.216Z,12.67
2023-02-01T04:51:56.672Z,23.47
2023-02-01T04:54:23.137Z,16.37
2023-02-01T04:56:49.606Z,19.40
2023-02-01T04:59:16.085Z,16.43
2023-02-01T05:01:42.613Z,14.30
2023-02-01T05:04:09.933Z,19.87
2023-02-01T05:06:36.504Z,12.27
2023-02-01T05:09:02.991Z,16.87
2023-02-01T05:11:47.775Z,11.70
2023-02-01T05:14:14.323Z,11.73
2023-02-01T05:16:40.906Z,7.70
2023-02-01T05:19:07.404Z,10.10
2023-02-01T05:21:33.854Z,21.07
2023-02-01T05:24:19.970Z,15.07
2023-02-01T05:26:48.325Z,13.83
2023-02-01T05:29:17.551Z,17.40
2023-02-01T05:31:46.577Z,17.20
2023-02-01T05:34:13.676Z,12.23
2023-02-01T05:36:40.380Z,12.80
2023-02-01T05:39:06.918Z,11.70
2023-02-01T05:41:33.518Z,12.07
2023-02-01T05:43:59.994Z,14.27
2023-02-01T05:46:26.484Z,15.93
2023-02-01T05:48:53.021Z,14.53
2023-02-01T05:51:19.500Z,16.47
2023-02-01T05:53:45.998Z,13.77
2023-02-01T05:56:12.497Z,11.20
2023-02-01T05:58:38.947Z,25.67
2023-02-01T06:01:05.697Z,23.27
2023-02-01T06:03:32.331Z,14.07
2023-02-01T06:06:00.583Z,10.13
2023-02-01T06:08:27.096Z,10.43
2023-02-01T06:11:05.567Z,9.00
2023-02-01T06:13:34.599Z,10.20
2023-02-01T06:16:03.492Z,10.57
2023-02-01T06:18:30.840Z,10.33
2023-02-01T06:21:02.292Z,16.80
2023-02-01T06:23:30.630Z,15.57
2023-02-01T06:26:05.034Z,12.37
2023-02-01T06:28:32.873Z,13.63
2023-02-01T06:31:07.924Z,13.33
2023-02-01T06:33:35.634Z,11.87
2023-02-01T06:36:06.579Z,13.10
2023-02-01T06:38:36.169Z,10.83
2023-02-01T06:41:03.505Z,10.30
2023-02-01T06:43:30.282Z,12.63
2023-02-01T06:46:06.930Z,11.37
2023-02-01T06:48:34.234Z,14.10
2023-02-01T06:51:00.747Z,12.33
2023-02-01T06:53:27.411Z,17.27
2023-02-01T06:56:03.454Z,16.33
2023-02-01T06:58:32.912Z,13.93
2023-02-01T07:01:05.962Z,20.07
2023-02-01T07:03:32.659Z,24.67
2023-02-01T07:05:59.275Z,25.93
2023-02-01T07:08:28.590Z,19.10
2023-02-01T07:10:55.066Z,65.60
2023-02-01T07:13:21.563Z,28.27
2023-02-01T07:15:48.027Z,34.83
2023-02-01T07:18:15.667Z,215.10
2023-02-01T07:20:43.015Z,65.53
2023-02-01T07:23:11.457Z,44.07
2023-02-01T07:25:38.076Z,41.10
2023-02-01T07:28:04.528Z,25.00
2023-02-01T07:30:30.986Z,32.07
2023-02-01T07:33:01.205Z,54.57
2023-02-01T07:35:29.247Z,55.07
2023-02-01T07:37:57.772Z,41.47
2023-02-01T07:40:28.801Z,46.53
2023-02-01T07:42:56.036Z,76.13
2023-02-01T07:45:23.233Z,52.80
2023-02-01T07:47:52.652Z,61.03
2023-02-01T07:50:19.196Z,46.97
2023-02-01T07:52:45.689Z,37.37
2023-02-01T07:55:12.145Z,42.33
2023-02-01T07:57:38.627Z,49.37
2023-02-01T08:00:24.849Z,39.77
2023-02-01T08:02:51.497Z,40.43
2023-02-01T08:05:17.960Z,35.77
2023-02-01T08:07:44.433Z,35.80
2023-02-01T08:10:11.782Z,44.43
2023-02-01T08:12:38.624Z,36.23
2023-02-01T08:15:06.106Z,38.00
2023-02-01T08:17:32.574Z,35.70
2023-02-01T08:19:59.058Z,40.73
2023-02-01T08:22:25.541Z,36.03
2023-02-01T08:24:58.428Z,27.03
2023-02-01T08:27:24.969Z,30.60
2023-02-01T08:29:51.575Z,30.20
2023-02-01T08:32:18.062Z,28.97
2023-02-01T08:34:44.531Z,26.07
2023-02-01T08:37:11.019Z,21.93
2023-02-01T08:39:37.489Z,26.10
2023-02-01T08:42:25.463Z,21.00
2023-02-01T08:44:52.247Z,20.53
2023-02-01T08:47:18.740Z,20.17
2023-02-01T08:49:45.211Z,45.57
2023-02-01T08:52:15.946Z,20.33
2023-02-01T08:54:42.955Z,29.87
2023-02-01T08:57:12.354Z,16.67
2023-02-01T08:59:38.853Z,12.23
2023-02-01T09:02:05.630Z,15.03
2023-02-01T09:04:32.815Z,18.63
2023-02-01T09:06:59.293Z,9.87
2023-02-01T09:09:29.067Z,12.33
2023-02-01T09:11:55.551Z,13.43
2023-02-01T09:14:22.041Z,15.60
2023-02-01T09:16:48.547Z,22.27
2023-02-01T09:19:26.085Z,18.93
2023-02-01T09:21:53.378Z,19.80
2023-02-01T09:24:19.937Z,19.90
2023-02-01T09:26:46.447Z,13.30
2023-02-01T09:29:12.960Z,26.17
2023-02-01T09:31:44.107Z,31.63
2023-02-01T09:34:13.369Z,17.60
2023-02-01T09:36:39.876Z,25.83
2023-02-01T09:39:06.381Z,21.57
2023-02-01T09:47:12.901Z,17.40
2023-02-01T09:50:17.297Z,10.27
2023-02-01T09:53:37.864Z,10.43
2023-02-01T09:56:21.327Z,8.07
2023-02-01T09:59:19.804Z,19.03
2023-02-01T10:01:46.438Z,12.17
2023-02-01T10:04:15.883Z,16.97
2023-02-01T10:08:05.301Z,8.47
2023-02-01T10:10:47.937Z,14.77
2023-02-01T10:13:43.858Z,11.77
2023-02-01T10:17:04.238Z,1.77
2023-02-01T10:21:31.833Z,10.73
2023-02-01T10:26:42.766Z,1.57
2023-02-01T10:29:22.729Z,1.80
2023-02-01T10:31:49.449Z,1.67
2023-02-01T10:34:26.464Z,3.03
2023-02-01T10:37:23.611Z,1.13
2023-02-01T10:39:54.667Z,1.83
2023-02-01T10:42:27.005Z,2.00
2023-02-01T10:44:58.150Z,2.63
2023-02-01T10:47:24.799Z,5.30
2023-02-01T10:50:30.368Z,1.70
2023-02-01T10:53:15.351Z,1.40
2023-02-01T10:55:50.143Z,3.57
2023-02-01T10:58:33.036Z,2.57
2023-02-01T11:01:11.347Z,2.97
2023-02-01T11:03:42.555Z,2.30
2023-02-01T11:06:36.732Z,1.33
2023-02-01T11:09:25.957Z,1.77
2023-02-01T11:12:01.293Z,1.13
2023-02-01T11:14:40.464Z,2.13
2023-02-01T11:17:40.010Z,1.27
2023-02-01T11:20:42.846Z,0.83
2023-02-01T11:23:21.744Z,4.70
2023-02-01T11:26:26.609Z,4.00
2023-02-01T11:29:44.200Z,0.40
2023-02-01T11:32:14.147Z,1.50
2023-02-01T11:35:02.610Z,1.70
2023-02-01T11:37:38.841Z,0.73
2023-02-01T11:40:29.877Z,1.13
2023-02-01T11:43:00.604Z,1.60
2023-02-01T11:45:30.974Z,4.27
2023-02-01T11:47:59.718Z,2.07
2023-02-01T11:50:52.507Z,1.20
2023-02-01T11:54:23.188Z,1.23
2023-02-01T12:00:13.320Z,2.00
2023-02-01T12:03:23.981Z,1.33
2023-02-01T12:08:46.082Z,0.40
2023-02-01T12:12:26.278Z,1.67
2023-02-01T12:16:08.595Z,3.93
2023-02-01T12:19:12.115Z,1.53
2023-02-01T12:24:46.909Z,1.27
2023-02-01T12:28:13.596Z,1.50
2023-02-01T12:31:24.241Z,3.10
2023-02-01T12:34:48.937Z,1.63
2023-02-01T12:38:11.172Z,4.53
2023-02-01T12:43:48.730Z,1.60
2023-02-01T12:46:32.839Z,8.60
2023-02-01T12:52:03.036Z,0.83
2023-02-01T12:55:04.771Z,0.50
2023-02-01T12:57:38.047Z,1.80
2023-02-01T13:03:19.172Z,1.92
2023-02-01T13:06:14.248Z,0.97
2023-02-01T13:11:45.367Z,1.83
2023-02-01T13:15:26.448Z,1.60
2023-02-01T13:17:59.135Z,0.63
2023-02-01T13:21:13.375Z,1.50
2023-02-01T13:23:46.581Z,0.60
2023-02-01T13:26:13.304Z,0.63
2023-02-01T13:29:02.968Z,1.10
2023-02-01T13:35:46.450Z,0.53
2023-02-01T13:40:45.266Z,1.10
2023-02-01T13:43:24.067Z,2.57
2023-02-01T13:45:56.137Z,0.70
2023-02-01T13:48:54.482Z,1.67
2023-02-01T13:51:38.035Z,1.33
2023-02-01T13:54:06.198Z,2.87
2023-02-01T13:56:43.501Z,0.60
2023-02-01T14:03:43.711Z,0.40
2023-02-01T14:07:22.646Z,0.30
2023-02-01T14:09:49.319Z,0.40
2023-02-01T14:13:46.616Z,0.27
2023-02-01T14:16:18.253Z,1.00
2023-02-01T14:18:58.600Z,0.73
2023-02-01T14:21:33.462Z,5.60
2023-02-01T14:24:53.712Z,0.53
2023-02-01T14:27:25.311Z,1.80
2023-02-01T14:29:59.644Z,1.80
2023-02-01T14:32:46.922Z,0.70
2023-02-01T14:35:27.392Z,1.20
2023-02-01T14:38:02.899Z,2.17
2023-02-01T14:40:31.182Z,0.57
2023-02-01T14:42:57.677Z,1.70
2023-02-01T14:45:50.930Z,1.03
2023-02-01T14:48:46.047Z,1.33
2023-02-01T14:51:17.822Z,0.73
2023-02-01T14:53:46.897Z,1.10
2023-02-01T14:56:20.632Z,1.80
2023-02-01T14:59:13.117Z,0.70
2023-02-01T15:01:50.398Z,1.03
2023-02-01T15:04:22.003Z,1.67
2023-02-01T15:07:07.270Z,1.57
2023-02-01T15:09:48.473Z,1.30
2023-02-01T15:12:33.207Z,0.57
2023-02-01T15:15:23.328Z,1.60
2023-02-01T15:17:57.085Z,0.90
2023-02-01T15:20:27.123Z,0.43
2023-02-01T15:23:02.807Z,0.90
2023-02-01T15:25:37.026Z,3.50
2023-02-01T15:28:06.150Z,1.17
2023-02-01T15:30:35.770Z,0.63
2023-02-01T15:33:19.587Z,1.53
2023-02-01T15:35:49.250Z,0.67
2023-02-01T15:38:48.646Z,1.43
2023-02-01T15:41:19.051Z,1.20
2023-02-01T15:45:20.710Z,0.60
2023-02-01T15:47:54.897Z,1.20
2023-02-01T15:50:25.221Z,4.17
2023-02-01T15:52:55.807Z,1.67
2023-02-01T15:55:43.647Z,1.60
2023-02-01T15:58:24.199Z,3.23
2023-02-01T16:01:07.051Z,1.20
2023-02-01T16:03:41.557Z,2.87
2023-02-01T16:06:34.367Z,3.97
2023-02-01T16:09:16.837Z,2.20
2023-02-01T16:12:24.504Z,1.30
2023-02-01T16:14:50.986Z,1.23
2023-02-01T16:17:17.450Z,1.20
2023-02-01T16:19:43.924Z,3.73
2023-02-01T16:22:10.405Z,3.47
2023-02-01T16:24:36.853Z,2.43
2023-02-01T16:27:05.417Z,2.30
2023-02-01T16:29:31.903Z,5.10
2023-02-01T16:31:58.439Z,1.80
2023-02-01T16:34:24.990Z,1.13
2023-02-01T16:36:52.461Z,2.73
2023-02-01T16:39:22.857Z,2.43
2023-02-01T16:41:50.087Z,3.17
2023-02-01T16:44:16.570Z,0.53
2023-02-01T16:46:47.368Z,0.80
2023-02-01T16:49:21.436Z,2.47
2023-02-01T16:51:55.416Z,1.27
2023-02-01T16:54:22.435Z,3.10
2023-02-01T16:56:48.899Z,3.43
2023-02-01T16:59:15.392Z,3.57
2023-02-01T17:01:42.759Z,0.77
2023-02-01T17:04:11.269Z,1.27
2023-02-01T17:06:39.739Z,0.77
2023-02-01T17:09:06.863Z,2.93
2023-02-01T17:11:33.383Z,4.10
2023-02-01T17:14:19.574Z,7.03
2023-02-01T17:16:50.765Z,5.13
2023-02-01T17:19:22.941Z,3.27
2023-02-01T17:21:54.283Z,4.53
2023-02-01T17:24:30.748Z,2.43
2023-02-01T17:27:03.766Z,1.80
2023-02-01T17:29:30.296Z,2.10
2023-02-01T17:31:59.621Z,2.10
2023-02-01T17:34:26.931Z,5.00
2023-02-01T17:36:53.685Z,2.47
2023-02-01T17:39:38.765Z,3.40
2023-02-01T17:42:10.724Z,2.53
2023-02-01T17:44:37.684Z,1.77
2023-02-01T17:47:04.335Z,3.57
2023-02-01T17:49:30.795Z,3.03
2023-02-01T17:51:57.796Z,2.73
2023-02-01T17:54:25.565Z,2.20
2023-02-01T17:56:52.131Z,2.53
2023-02-01T17:59:18.642Z,1.57
2023-02-01T18:01:45.142Z,2.70
2023-02-01T18:04:19.066Z,2.70
2023-02-01T18:06:45.998Z,4.60
2023-02-01T18:09:12.521Z,2.13
2023-02-01T18:11:38.975Z,4.80
2023-02-01T18:14:05.473Z,1.80
2023-02-01T18:16:33.602Z,2.03
2023-02-01T18:19:04.226Z,4.57
2023-02-01T18:21:40.080Z,2.53
2023-02-01T18:24:08.578Z,8.53
2023-02-01T18:26:35.079Z,2.10
2023-02-01T18:29:01.592Z,6.07
2023-02-01T18:31:32.074Z,0.97
2023-02-01T18:33:59.813Z,7.83
2023-02-01T18:36:27.890Z,6.13
2023-02-01T18:38:56.821Z,4.43
2023-02-01T18:41:24.620Z,3.23
2023-02-01T18:43:52.327Z,3.63
2023-02-01T18:46:20.770Z,7.10
2023-02-01T18:48:47.264Z,9.70
2023-02-01T18:51:19.445Z,6.53
2023-02-01T18:53:47.850Z,6.07
2023-02-01T18:56:17.619Z,5.73
2023-02-01T18:58:44.699Z,2.97
2023-02-01T19:01:17.758Z,3.00
2023-02-01T19:03:48.013Z,4.20
2023-02-01T19:06:25.721Z,5.07
2023-02-01T19:08:54.120Z,4.13
2023-02-01T19:11:20.595Z,5.93
2023-02-01T19:13:50.676Z,4.87
2023-02-01T19:16:17.752Z,4.17
2023-02-01T19:18:44.319Z,5.90
2023-02-01T19:21:12.689Z,4.33
2023-02-01T19:23:41.087Z,3.63
2023-02-01T19:26:13.208Z,5.73
2023-02-01T19:28:40.413Z,2.90
2023-02-01T19:31:08.628Z,3.57
2023-02-01T19:33:35.638Z,2.27
2023-02-01T19:36:05.231Z,3.07
2023-02-01T19:38:33.142Z,2.70
2023-02-01T19:40:59.710Z,1.87
2023-02-01T19:43:26.238Z,1.00
2023-02-01T19:45:54.309Z,1.83
2023-02-01T19:48:20.898Z,4.17
2023-02-01T19:50:47.407Z,5.43
2023-02-01T19:53:13.912Z,7.87
2023-02-01T19:55:45.532Z,8.73
2023-02-01T19:58:12.087Z,2.33
2023-02-01T20:00:38.350Z,1.90
2023-02-01T20:03:05.121Z,1.23
2023-02-01T20:05:31.695Z,4.50
2023-02-01T20:07:58.138Z,4.63
2023-02-01T20:10:24.633Z,8.23
2023-02-01T20:12:51.138Z,5.23
2023-02-01T20:15:23.878Z,3.83
2023-02-01T20:17:50.559Z,2.40
2023-02-01T20:20:17.177Z,2.97
2023-02-01T20:22:44.531Z,3.57
2023-02-01T20:25:11.094Z,3.10
2023-02-01T20:27:38.495Z,1.90
2023-02-01T20:30:05.926Z,3.80
2023-02-01T20:32:32.414Z,1.77
2023-02-01T20:34:58.899Z,3.07
2023-02-01T20:37:25.515Z,3.37
2023-02-01T20:39:51.974Z,2.00
2023-02-01T20:42:18.470Z,2.27
2023-02-01T20:44:44.965Z,0.93
2023-02-01T20:47:11.452Z,2.33
2023-02-01T20:49:39.690Z,0.70
2023-02-01T20:52:06.422Z,3.97
2023-02-01T20:54:32.895Z,0.80
2023-02-01T20:56:59.345Z,2.20
2023-02-01T20:59:25.826Z,0.40
2023-02-01T21:01:52.329Z,0.73
2023-02-01T21:04:26.420Z,1.73
2023-02-01T21:06:58.091Z,0.43
2023-02-01T21:09:26.125Z,0.73
2023-02-01T21:11:53.470Z,0.93
2023-02-01T21:14:20.148Z,1.83
2023-02-01T21:16:48.107Z,9.23
2023-02-01T21:19:16.410Z,0.97
2023-02-01T21:21:43.067Z,5.83
2023-02-01T21:24:09.718Z,0.80
2023-02-01T21:26:41.912Z,1.23
2023-02-01T21:29:11.655Z,1.90
2023-02-01T21:31:39.452Z,0.47
2023-02-01T21:34:06.343Z,0.70
2023-02-01T21:36:34.677Z,3.37
2023-02-01T21:39:04.063Z,3.17
2023-02-01T21:41:51.198Z,2.17
2023-02-01T21:44:18.112Z,1.10
2023-02-01T21:46:45.075Z,0.90
2023-02-01T21:49:11.755Z,6.10
2023-02-01T21:51:38.233Z,1.30
2023-02-01T21:54:09.901Z,1.10
2023-02-01T21:56:37.798Z,1.00
2023-02-01T21:59:04.676Z,0.97
2023-02-01T22:01:31.524Z,0.87
2023-02-01T22:03:58.014Z,1.93
2023-02-01T22:06:29.873Z,2.17
2023-02-01T22:08:56.694Z,1.27
2023-02-01T22:11:23.837Z,1.27
2023-02-01T22:13:50.854Z,2.23
2023-02-01T22:16:20.520Z,2.20
2023-02-01T22:18:53.985Z,1.73
2023-02-01T22:21:23.175Z,0.93
2023-02-01T22:23:58.577Z,1.20
2023-02-01T22:26:27.327Z,1.10
2023-02-01T22:28:54.619Z,2.33
2023-02-01T22:31:22.361Z,5.27
2023-02-01T22:33:50.232Z,2.57
2023-02-01T22:36:17.341Z,6.13
2023-02-01T22:38:45.732Z,2.27
2023-02-01T22:41:12.807Z,4.63
2023-02-01T22:43:39.707Z,1.40
2023-02-01T22:46:11.637Z,1.60
2023-02-01T22:48:40.611Z,2.30
2023-02-01T22:51:32.267Z,1.33
2023-02-01T22:53:59.952Z,1.83
2023-02-01T22:56:33.894Z,3.27
2023-02-01T22:59:04.229Z,5.33
2023-02-01T23:01:32.271Z,1.97
2023-02-01T23:04:02.523Z,3.03
2023-02-01T23:06:30.557Z,0.80
2023-02-01T23:09:00.880Z,0.70
2023-02-01T23:11:28.777Z,2.90
2023-02-01T23:13:56.005Z,1.93
2023-02-01T23:16:23.028Z,3.17
2023-02-01T23:18:49.919Z,1.47
2023-02-01T23:21:21.268Z,1.00
2023-02-01T23:23:51.507Z,1.13
2023-02-01T23:26:19.414Z,1.00
2023-02-01T23:28:46.349Z,1.47
2023-02-01T23:31:14.199Z,1.90
2023-02-01T23:33:44.492Z,3.43
2023-02-01T23:36:15.195Z,1.63
2023-02-01T23:38:45.932Z,1.23
2023-02-01T23:41:15.089Z,2.00
2023-02-01T23:43:57.250Z,1.90
2023-02-01T23:46:27.023Z,3.50
2023-02-01T23:48:54.136Z,1.67
2023-02-01T23:54:09.149Z,1.80
2023-02-01T23:56:42.755Z,1.67
2023-02-01T23:59:19.522Z,2.40
